Time;durP1;ratioP1;P1;durP2;ratioP2;P2;SDS_P1;SDS_P2;PMS_P1;PMS_P2;Temp;Humidity;BMP_temperature;BMP_pressure;BME280_temperature;BME280_humidity;BME280_pressure;Samples;Min_cycle;Max_cycle;Signal;HPM_P1;HPM_P2
2022/03/01 00:01:46;;;;;;;;;;;;;;;26.39;65.24;97821.55;584288;243;67217;-65
2022/03/01 00:04:13;;;;;;;;;;;;;;;26.39;65.10;97829.63;584269;243;66868;-65
2022/03/01 00:06:41;;;;;;;;;;;;;;;26.39;65.89;97821.55;584258;243;65295;-65
2022/03/01 00:09:08;;;;;;;;;;;;;;;26.35;62.73;97827.51;584238;243;67304;-65
2022/03/01 00:11:36;;;;;;;;;;;;;;;26.35;64.98;97816.73;584242;243;64972;-65
2022/03/01 00:14:04;;;;;;;;;;;;;;;26.35;66.00;97821.30;584206;243;65387;-65
2022/03/01 00:16:32;;;;;;;;;;;;;;;26.32;62.57;97827.26;584264;243;67428;-65
2022/03/01 00:18:59;;;;;;;;;;;;;;;26.33;65.01;97818.91;584236;243;67067;-65
2022/03/01 00:21:31;;;;;;;;;;;;;;;26.31;66.04;97814.89;584241;243;63200;-65
2022/03/01 00:23:59;;;;;;;;;;;;;;;26.30;66.76;97808.70;584226;243;65124;-66
2022/03/01 00:26:27;;;;;;;;;;;;;;;26.30;64.46;97811.39;584213;243;66945;-66
2022/03/01 00:28:54;;;;;;;;;;;;;;;26.28;66.19;97808.17;584263;243;65127;-66
2022/03/01 00:31:22;;;;;;;;;;;;;;;26.28;66.39;97802.79;584217;243;67082;-66
2022/03/01 00:33:49;;;;;;;;;;;;;;;26.27;65.98;97801.19;586708;241;66860;-66
2022/03/01 00:36:17;;;;;;;;;;;;;;;26.25;66.06;97800.67;587524;241;63052;-66
2022/03/01 00:38:44;;;;;;;;;;;;;;;26.24;66.29;97792.86;587517;241;64919;-65
2022/03/01 00:41:12;;;;;;;;;;;;;;;26.23;66.61;97792.06;587501;241;67658;-65
2022/03/01 00:43:39;;;;;;;;;;;;;;;26.23;65.59;97791.27;587513;241;65244;-66
2022/03/01 00:46:07;;;;;;;;;;;;;;;26.22;66.09;97790.47;587498;241;67203;-65
2022/03/01 00:48:35;;;;;;;;;;;;;;;26.22;66.37;97789.64;587531;241;66890;-66
2022/03/01 00:51:02;;;;;;;;;;;;;;;26.20;66.56;97784.55;587532;241;65373;-66
2022/03/01 00:53:29;;;;;;;;;;;;;;;26.18;66.40;97788.63;587550;241;67241;-66
2022/03/01 00:55:57;;;;;;;;;;;;;;;26.17;65.69;97782.44;587580;241;66956;-65
2022/03/01 00:58:24;;;;;;;;;;;;;;;26.17;65.90;97781.64;587553;241;65440;-66
2022/03/01 01:00:52;;;;;;;;;;;;;;;26.16;66.94;97771.94;587526;241;67023;-66
2022/03/01 01:03:19;;;;;;;;;;;;;;;26.15;66.34;97773.83;587512;240;67043;-65
2022/03/01 01:05:47;;;;;;;;;;;;;;;26.15;67.11;97770.34;587508;241;65292;-66
2022/03/01 01:08:14;;;;;;;;;;;;;;;26.14;66.75;97777.63;587553;241;67445;-65
2022/03/01 01:10:42;;;;;;;;;;;;;;;26.13;65.52;97776.00;587510;241;67053;-66
2022/03/01 01:13:09;;;;;;;;;;;;;;;26.12;66.77;97769.81;587540;241;65322;-66
2022/03/01 01:15:37;;;;;;;;;;;;;;;26.11;65.90;97768.22;587515;241;68024;-65
2022/03/01 01:18:04;;;;;;;;;;;;;;;26.10;66.74;97768.50;587501;241;67135;-66
2022/03/01 01:20:32;;;;;;;;;;;;;;;26.10;66.89;97765.80;587527;241;65139;-65
2022/03/01 01:22:59;;;;;;;;;;;;;;;26.10;66.52;97771.19;587522;241;67052;-66
2022/03/01 01:25:27;;;;;;;;;;;;;;;26.08;67.00;97767.97;587512;241;67094;-66
2022/03/01 01:27:58;;;;;;;;;;;;;;;26.07;66.74;97767.17;587501;241;63259;-65
2022/03/01 01:30:27;;;;;;;;;;;;;;;26.06;65.84;97770.97;587487;241;67413;-66
2022/03/01 01:32:55;;;;;;;;;;;;;;;26.05;66.16;97763.95;586039;241;67026;-65
2022/03/01 01:35:24;;;;;;;;;;;;;;;26.04;66.56;97773.14;584137;243;65359;-66
2022/03/01 01:37:52;;;;;;;;;;;;;;;26.03;66.80;97774.23;584020;242;67010;-66
2022/03/01 01:40:21;;;;;;;;;;;;;;;26.02;64.76;97758.34;584215;243;67206;-69
2022/03/01 01:42:49;;;;;;;;;;;;;;;26.01;67.02;97759.45;583915;242;65304;-68
2022/03/01 01:45:17;;;;;;;;;;;;;;;26.01;67.70;97754.06;584214;243;65067;-68
2022/03/01 01:47:45;;;;;;;;;;;;;;;25.99;66.75;97754.34;584280;243;64729;-68
2022/03/01 01:50:12;;;;;;;;;;;;;;;26.00;66.61;97764.04;584199;243;63272;-68
2022/03/01 01:52:40;;;;;;;;;;;;;;;25.98;66.23;97762.72;584156;243;64930;-68
2022/03/01 01:55:08;;;;;;;;;;;;;;;25.97;67.44;97750.32;584257;243;67362;-68
2022/03/01 01:57:36;;;;;;;;;;;;;;;25.95;65.28;97749.83;584208;243;63280;-68
2022/03/01 02:00:04;;;;;;;;;;;;;;;25.96;67.62;97748.73;584206;243;65016;-68
2022/03/01 02:02:34;;;;;;;;;;;;;;;25.94;64.48;97742.81;584129;242;42785;-68
2022/03/01 02:05:02;;;;;;;;;;;;;;;25.94;67.59;97742.81;584205;243;63248;-68
2022/03/01 02:07:29;;;;;;;;;;;;;;;25.91;64.27;97731.52;584257;243;67461;-68
2022/03/01 02:09:57;;;;;;;;;;;;;;;25.91;66.52;97736.91;584198;243;67131;-68
2022/03/01 02:12:24;;;;;;;;;;;;;;;25.92;66.48;97743.13;584256;243;65299;-68
2022/03/01 02:14:52;;;;;;;;;;;;;;;25.91;66.50;97742.29;584174;243;66950;-66
2022/03/01 02:17:20;;;;;;;;;;;;;;;25.89;66.26;97739.11;584220;243;67092;-66
2022/03/01 02:19:48;;;;;;;;;;;;;;;25.88;67.48;97737.48;584204;243;65293;-66
2022/03/01 02:22:16;;;;;;;;;;;;;;;25.88;67.69;97736.69;584255;243;67436;-66
2022/03/01 02:24:43;;;;;;;;;;;;;;;25.85;66.76;97738.05;584205;243;67152;-66
2022/03/01 02:27:11;;;;;;;;;;;;;;;25.87;66.91;97745.86;584167;243;65407;-66
2022/03/01 02:29:38;;;;;;;;;;;;;;;25.85;67.41;97748.03;584216;243;67337;-66
2022/03/01 02:32:07;;;;;;;;;;;;;;;25.85;67.71;97742.64;584146;242;67181;-66
2022/03/01 02:34:35;;;;;;;;;;;;;;;25.83;66.54;97739.39;584266;243;65585;-65
2022/03/01 02:37:03;;;;;;;;;;;;;;;25.82;68.03;97733.22;584262;243;67264;-65
2022/03/01 02:39:31;;;;;;;;;;;;;;;25.81;65.71;97747.77;584226;243;67044;-65
2022/03/01 02:41:58;;;;;;;;;;;;;;;25.81;66.30;97741.56;584197;243;65291;-65
2022/03/01 02:44:25;;;;;;;;;;;;;;;25.80;65.55;97734.58;584173;243;67086;-65
2022/03/01 02:46:53;;;;;;;;;;;;;;;25.79;67.44;97739.17;584285;243;66933;-67
2022/03/01 02:49:20;;;;;;;;;;;;;;;25.77;64.36;97733.27;584207;243;65376;-67
2022/03/01 02:51:48;;;;;;;;;;;;;;;25.76;65.83;97728.97;584193;243;65046;-67
2022/03/01 02:54:15;;;;;;;;;;;;;;;25.76;66.66;97728.97;584197;243;64932;-67
2022/03/01 02:56:43;;;;;;;;;;;;;;;25.76;67.15;97723.59;584226;243;64091;-67
2022/03/01 02:59:10;;;;;;;;;;;;;;;25.75;67.83;97727.35;584254;243;67260;-67
2022/03/01 03:01:38;;;;;;;;;;;;;;;25.73;67.12;97734.93;584241;243;66857;-67
2022/03/01 03:04:05;;;;;;;;;;;;;;;25.72;66.77;97730.61;584205;243;65266;-67
2022/03/01 03:06:33;;;;;;;;;;;;;;;25.72;67.95;97730.61;584214;243;65043;-67
2022/03/01 03:09:01;;;;;;;;;;;;;;;25.71;68.15;97723.64;584164;243;65148;-67
2022/03/01 03:11:28;;;;;;;;;;;;;;;25.71;67.95;97722.84;584211;243;65236;-67
2022/03/01 03:13:56;;;;;;;;;;;;;;;25.69;67.45;97723.11;584260;243;67134;-67
2022/03/01 03:16:23;;;;;;;;;;;;;;;25.69;67.77;97720.42;584225;243;67205;-67
2022/03/01 03:18:51;;;;;;;;;;;;;;;25.67;68.20;97728.80;584202;243;66039;-67
2022/03/01 03:21:19;;;;;;;;;;;;;;;25.66;67.51;97721.79;584214;243;67250;-67
2022/03/01 03:23:47;;;;;;;;;;;;;;;25.65;67.22;97720.20;584199;243;64757;-68
2022/03/01 03:26:14;;;;;;;;;;;;;;;25.66;68.17;97720.99;584286;243;63101;-67
2022/03/01 03:28:42;;;;;;;;;;;;;;;25.64;68.20;97721.27;584217;243;66571;-67
2022/03/01 03:31:09;;;;;;;;;;;;;;;25.63;67.49;97722.36;584234;243;64661;-67
2022/03/01 03:33:37;;;;;;;;;;;;;;;25.63;68.25;97718.88;584195;242;63263;-67
2022/03/01 03:36:04;;;;;;;;;;;;;;;25.61;66.88;97715.66;584231;243;67263;-67
2022/03/01 03:38:32;;;;;;;;;;;;;;;25.61;68.66;97721.04;584308;243;66869;-67
2022/03/01 03:41:00;;;;;;;;;;;;;;;25.59;68.21;97715.13;584253;243;65288;-67
2022/03/01 03:43:28;;;;;;;;;;;;;;;25.58;68.33;97716.23;584257;243;67110;-67
2022/03/01 03:45:56;;;;;;;;;;;;;;;25.58;68.61;97713.53;584240;243;64158;-67
2022/03/01 03:48:23;;;;;;;;;;;;;;;25.57;69.09;97714.63;584217;243;65311;-67
2022/03/01 03:50:51;;;;;;;;;;;;;;;25.56;69.21;97707.63;584266;243;67223;-68
2022/03/01 03:53:18;;;;;;;;;;;;;;;25.55;68.38;97717.59;584253;243;65024;-67
2022/03/01 03:55:46;;;;;;;;;;;;;;;25.55;68.71;97714.11;584219;243;63300;-67
2022/03/01 03:58:14;;;;;;;;;;;;;;;25.55;68.54;97712.22;584228;243;67524;-67
2022/03/01 04:00:41;;;;;;;;;;;;;;;25.52;68.56;97707.40;584224;243;67039;-67
2022/03/01 04:03:09;;;;;;;;;;;;;;;25.52;69.02;97709.30;584226;243;65278;-67
2022/03/01 04:05:37;;;;;;;;;;;;;;;25.52;68.27;97709.30;584279;243;67396;-67
2022/03/01 04:08:04;;;;;;;;;;;;;;;25.51;69.18;97711.19;584247;243;67126;-67
2022/03/01 04:10:32;;;;;;;;;;;;;;;25.50;69.34;97703.39;584215;243;65325;-67
2022/03/01 04:12:59;;;;;;;;;;;;;;;25.49;67.72;97707.97;584227;243;67040;-67
2022/03/01 04:15:27;;;;;;;;;;;;;;;25.49;68.98;97712.55;584273;243;66862;-67
2022/03/01 04:17:54;;;;;;;;;;;;;;;25.46;69.52;97701.27;584239;243;64049;-69
2022/03/01 04:20:22;;;;;;;;;;;;;;;25.46;68.96;97708.54;584238;243;66954;-67
2022/03/01 04:22:49;;;;;;;;;;;;;;;25.46;69.94;97703.16;584212;243;65400;-67
2022/03/01 04:25:17;;;;;;;;;;;;;;;25.43;69.54;97693.77;584209;243;63063;-67
2022/03/01 04:27:44;;;;;;;;;;;;;;;25.43;69.44;97698.34;584248;243;65048;-67
2022/03/01 04:30:12;;;;;;;;;;;;;;;25.42;69.84;97692.14;584262;243;65031;-67
2022/03/01 04:32:41;;;;;;;;;;;;;;;25.43;69.80;97693.77;584187;242;65316;-67
2022/03/01 04:35:09;;;;;;;;;;;;;;;25.42;69.33;97702.11;584242;243;67212;-67
2022/03/01 04:37:37;;;;;;;;;;;;;;;25.40;69.91;97694.33;584191;243;67051;-67
2022/03/01 04:40:06;;;;;;;;;;;;;;;25.40;69.52;97696.20;584239;243;65522;-67
2022/03/01 04:42:33;;;;;;;;;;;;;;;25.38;69.41;97696.50;584243;243;65609;-67
2022/03/01 04:45:02;;;;;;;;;;;;;;;25.37;69.71;97697.59;584192;243;65840;-67
2022/03/01 04:47:30;;;;;;;;;;;;;;;25.37;69.25;97696.77;584210;243;65603;-67
2022/03/01 04:49:58;;;;;;;;;;;;;;;25.36;69.86;97692.48;584245;243;67426;-67
2022/03/01 04:52:26;;;;;;;;;;;;;;;25.35;69.25;97690.89;584245;243;64911;-67
2022/03/01 04:54:53;;;;;;;;;;;;;;;25.34;69.43;97695.44;584246;243;64171;-67
2022/03/01 04:57:21;;;;;;;;;;;;;;;25.33;69.95;97691.16;584228;243;67195;-69
2022/03/01 04:59:48;;;;;;;;;;;;;;;25.32;69.79;97696.81;584248;243;64716;-68
2022/03/01 05:02:16;;;;;;;;;;;;;;;25.32;68.53;97703.02;584239;243;66217;-68
2022/03/01 05:04:43;;;;;;;;;;;;;;;25.30;69.54;97694.42;584228;243;67193;-68
2022/03/01 05:07:11;;;;;;;;;;;;;;;25.31;70.15;97695.22;584256;243;64670;-68
2022/03/01 05:09:39;;;;;;;;;;;;;;;25.29;67.46;97697.38;584241;243;64185;-67
2022/03/01 05:12:06;;;;;;;;;;;;;;;25.28;69.17;97698.47;584194;243;64870;-69
2022/03/01 05:14:34;;;;;;;;;;;;;;;25.28;70.02;97707.34;584223;243;67082;-68
2022/03/01 05:17:02;;;;;;;;;;;;;;;25.27;70.01;97700.37;584224;243;65378;-69
2022/03/01 05:19:29;;;;;;;;;;;;;;;25.26;69.60;97693.36;584223;243;67278;-68
2022/03/01 05:21:58;;;;;;;;;;;;;;;25.25;68.74;97697.15;579577;243;67202;-69
2022/03/01 05:24:27;;;;;;;;;;;;;;;25.26;69.92;97709.50;584175;243;63304;-68
2022/03/01 05:26:55;;;;;;;;;;;;;;;25.24;69.78;97709.80;584212;243;67199;-68
2022/03/01 05:29:22;;;;;;;;;;;;;;;25.23;69.64;97707.37;584205;243;66952;-68
2022/03/01 05:31:50;;;;;;;;;;;;;;;25.22;68.10;97713.86;584186;243;65221;-68
2022/03/01 05:34:18;;;;;;;;;;;;;;;25.21;68.96;97713.06;584243;242;65002;-68
2022/03/01 05:36:46;;;;;;;;;;;;;;;25.21;69.86;97709.58;584166;243;67315;-68
2022/03/01 05:39:13;;;;;;;;;;;;;;;25.19;70.19;97723.29;584209;243;63038;-69
2022/03/01 05:41:41;;;;;;;;;;;;;;;25.19;69.10;97722.49;584245;243;67350;-68
2022/03/01 05:44:08;;;;;;;;;;;;;;;25.19;69.28;97720.59;584213;243;67072;-69
2022/03/01 05:46:36;;;;;;;;;;;;;;;25.17;69.43;97721.96;584215;243;65293;-68
2022/03/01 05:49:03;;;;;;;;;;;;;;;25.16;70.20;97729.23;584262;243;67247;-68
2022/03/01 05:51:31;;;;;;;;;;;;;;;25.16;69.95;97731.92;584170;243;66933;-68
2022/03/01 05:53:58;;;;;;;;;;;;;;;25.15;69.98;97734.88;584235;243;65272;-68
2022/03/01 05:56:26;;;;;;;;;;;;;;;25.14;70.16;97734.05;584228;243;64563;-67
2022/03/01 05:58:53;;;;;;;;;;;;;;;25.14;70.01;97744.81;584200;243;65012;-67
2022/03/01 06:01:21;;;;;;;;;;;;;;;25.14;69.33;97744.02;584261;243;62941;-67
2022/03/01 06:03:48;;;;;;;;;;;;;;;25.13;69.26;97750.48;584200;243;65372;-67
2022/03/01 06:06:16;;;;;;;;;;;;;;;25.13;69.96;97751.28;584216;243;65182;-69
2022/03/01 06:08:43;;;;;;;;;;;;;;;25.13;68.92;97747.80;584082;243;63055;-67
2022/03/01 06:11:11;;;;;;;;;;;;;;;25.12;70.25;97754.24;582524;243;65002;-68
2022/03/01 06:13:39;;;;;;;;;;;;;;;25.13;70.42;97758.56;582635;243;67270;-68
2022/03/01 06:16:06;;;;;;;;;;;;;;;25.10;69.77;97762.61;582481;243;65323;-68
2022/03/01 06:18:34;;;;;;;;;;;;;;;25.12;69.64;97763.11;582575;243;67258;-67
2022/03/01 06:21:02;;;;;;;;;;;;;;;25.11;70.09;97764.20;582590;243;67084;-68
2022/03/01 06:23:31;;;;;;;;;;;;;;;25.11;69.93;97763.41;582613;243;65312;-67
2022/03/01 06:25:59;;;;;;;;;;;;;;;25.10;70.52;97769.84;582603;243;67202;-69
2022/03/01 06:28:26;;;;;;;;;;;;;;;25.10;70.37;97765.30;582639;243;67083;-69
2022/03/01 06:30:54;;;;;;;;;;;;;;;25.10;70.26;97764.47;582581;243;63145;-68
2022/03/01 06:33:21;;;;;;;;;;;;;;;25.09;70.55;97766.36;585068;241;64847;-68
2022/03/01 06:35:50;;;;;;;;;;;;;;;25.10;69.59;97772.54;587016;241;67767;-68
2022/03/01 06:38:18;;;;;;;;;;;;;;;25.09;68.78;97770.94;586988;241;65364;-68
2022/03/01 06:40:45;;;;;;;;;;;;;;;25.10;69.56;97770.67;587036;241;64979;-68
2022/03/01 06:43:13;;;;;;;;;;;;;;;25.11;69.77;97768.78;587031;241;64738;-68
2022/03/01 06:45:42;;;;;;;;;;;;;;;25.08;68.89;97767.45;586890;241;63245;-68
2022/03/01 06:48:09;;;;;;;;;;;;;;;25.10;69.22;97761.78;586995;241;65007;-68
2022/03/01 06:50:37;;;;;;;;;;;;;;;25.10;69.90;97761.78;587032;241;65398;-68
2022/03/01 06:53:06;;;;;;;;;;;;;;;25.12;69.27;97756.94;586937;241;65448;-68
2022/03/01 06:55:34;;;;;;;;;;;;;;;25.12;69.82;97762.31;586969;241;67349;-69
2022/03/01 06:58:03;;;;;;;;;;;;;;;25.10;68.98;97756.40;586301;241;67069;-69
2022/03/01 07:00:31;;;;;;;;;;;;;;;25.10;70.64;97764.47;586897;241;65654;-68
2022/03/01 07:02:58;;;;;;;;;;;;;;;25.08;68.94;97759.39;586924;241;67275;-68
2022/03/01 07:05:26;;;;;;;;;;;;;;;25.11;69.36;97766.09;586253;241;68095;-69
2022/03/01 07:07:53;;;;;;;;;;;;;;;25.11;69.79;97766.09;585853;241;65493;-68
2022/03/01 07:10:21;;;;;;;;;;;;;;;25.09;68.24;97760.98;580327;244;66924;-68
2022/03/01 07:12:48;;;;;;;;;;;;;;;25.10;69.42;97765.30;580317;244;67177;-68
2022/03/01 07:15:16;;;;;;;;;;;;;;;25.09;68.82;97760.98;580355;244;65310;-72
2022/03/01 07:17:45;;;;;;;;;;;;;;;25.09;69.37;97758.29;580243;244;67384;-71
2022/03/01 07:20:13;;;;;;;;;;;;;;;25.11;68.65;97763.41;580415;244;64945;-70
2022/03/01 07:22:41;;;;;;;;;;;;;;;25.11;68.33;97760.72;579851;244;65421;-68
2022/03/01 07:25:09;;;;;;;;;;;;;;;25.12;68.88;97762.31;579476;244;67207;-68
2022/03/01 07:27:38;;;;;;;;;;;;;;;25.13;68.93;97762.05;579703;244;67071;-73
2022/03/01 07:30:06;;;;;;;;;;;;;;;25.13;66.15;97763.94;580133;244;65415;-71
2022/03/01 07:32:34;;;;;;;;;;;;;;;25.16;68.79;97768.78;580395;244;66935;-72
2022/03/01 07:35:01;;;;;;;;;;;;;;;25.17;67.97;97770.38;580130;241;66697;-69
2022/03/01 07:37:29;;;;;;;;;;;;;;;25.19;68.10;97773.59;579339;241;65304;-68
2022/03/01 07:39:58;;;;;;;;;;;;;;;25.19;68.42;97769.02;580295;244;64304;-68
2022/03/01 07:42:26;;;;;;;;;;;;;;;25.19;66.75;97778.98;580337;244;66716;-67
2022/03/01 07:44:53;;;;;;;;;;;;;;;25.11;61.83;97771.47;580445;244;65630;-67
2022/03/01 07:47:21;;;;;;;;;;;;;;;25.16;62.23;97768.78;580317;244;66761;-66
2022/03/01 07:49:48;;;;;;;;;;;;;;;25.17;64.36;97773.06;580386;244;66808;-67
2022/03/01 07:52:16;;;;;;;;;;;;;;;25.18;65.25;97766.59;580336;244;65367;-70
2022/03/01 07:54:43;;;;;;;;;;;;;;;25.19;64.22;97765.53;570417;244;66167;-69
2022/03/01 07:57:12;;;;;;;;;;;;;;;25.20;64.71;97767.92;580237;244;64663;-70
2022/03/01 07:59:39;;;;;;;;;;;;;;;25.22;64.40;97764.97;580356;244;65432;-68
2022/03/01 08:02:07;;;;;;;;;;;;;;;25.23;64.94;97764.67;580297;244;67118;-69
2022/03/01 08:04:34;;;;;;;;;;;;;;;25.26;65.29;97768.69;580351;244;67311;-70
2022/03/01 08:07:02;;;;;;;;;;;;;;;25.29;65.51;97770.84;580360;244;63939;-67
2022/03/01 08:09:30;;;;;;;;;;;;;;;25.31;64.99;97774.03;580289;244;67048;-70
2022/03/01 08:11:57;;;;;;;;;;;;;;;25.33;65.75;97763.80;580377;244;65083;-68
2022/03/01 08:14:27;;;;;;;;;;;;;;;25.31;62.60;97765.96;580323;244;63177;-68
2022/03/01 08:16:54;;;;;;;;;;;;;;;25.35;65.16;97771.60;583642;240;67372;-69
2022/03/01 08:19:22;;;;;;;;;;;;;;;25.38;65.09;97766.45;587326;240;66936;-71
2022/03/01 08:21:52;;;;;;;;;;;;;;;25.40;64.49;97758.91;587373;241;65500;-69
2022/03/01 08:24:19;;;;;;;;;;;;;;;25.44;65.63;97762.63;587430;241;66975;-68
2022/03/01 08:26:48;;;;;;;;;;;;;;;25.46;65.18;97762.36;587437;241;66894;-74
2022/03/01 08:29:16;;;;;;;;;;;;;;;25.47;64.41;97761.27;587332;241;63097;-73
2022/03/01 08:31:44;;;;;;;;;;;;;;;25.48;65.70;97762.86;587401;240;67432;-74
2022/03/01 08:34:12;;;;;;;;;;;;;;;25.50;65.83;97762.59;587410;241;64771;-73
2022/03/01 08:36:39;;;;;;;;;;;;;;;25.52;66.06;97763.91;587415;241;63089;-78
2022/03/01 08:39:07;;;;;;;;;;;;;;;25.54;65.95;97766.34;587348;241;67128;-75
2022/03/01 08:41:34;;;;;;;;;;;;;;;25.56;65.51;97761.45;584742;241;66925;-73
2022/03/01 08:44:02;;;;;;;;;;;;;;;25.58;65.51;97764.67;583955;242;66275;-75
2022/03/01 08:46:29;;;;;;;;;;;;;;;25.58;66.83;97768.16;586827;241;66861;-72
2022/03/01 08:48:57;;;;;;;;;;;;;;;25.59;66.30;97767.09;587494;241;66628;-73
2022/03/01 08:51:30;;;;;;;;;;;;;;;25.62;66.23;97768.42;587380;241;65016;-74
2022/03/01 08:53:55;;;;;;;;;;;;;;;25.62;65.71;97771.91;587245;240;66790;-74
2022/03/01 08:56:22;;;;;;;;;;;;;;;25.65;66.66;97770.55;587430;241;66682;-68
2022/03/01 08:58:50;;;;;;;;;;;;;;;25.65;66.27;97770.55;587455;241;65253;-67
2022/03/01 09:01:17;;;;;;;;;;;;;;;25.65;65.57;97774.03;587431;241;66783;-66
2022/03/01 09:03:45;;;;;;;;;;;;;;;25.67;66.41;97779.95;587508;241;66855;-67
2022/03/01 09:06:13;;;;;;;;;;;;;;;25.66;66.23;97778.31;587456;241;62914;-67
2022/03/01 09:08:43;;;;;;;;;;;;;;;25.67;65.49;97779.95;587494;241;64793;-67
2022/03/01 09:11:11;;;;;;;;;;;;;;;25.65;64.64;97776.72;587505;241;64341;-67
2022/03/01 09:13:39;;;;;;;;;;;;;;;25.67;64.47;97781.81;587369;240;62341;-67
2022/03/01 09:16:07;;;;;;;;;;;;;;;25.67;64.30;97779.11;587531;241;67070;-70
2022/03/01 09:18:36;;;;;;;;;;;;;;;25.67;64.21;97782.63;587399;241;64863;-71
2022/03/01 09:21:04;;;;;;;;;;;;;;;25.68;60.27;97770.77;587465;241;65599;-73
2022/03/01 09:23:32;;;;;;;;;;;;;;;25.66;62.37;97772.14;587482;241;66897;-72
2022/03/01 09:25:59;;;;;;;;;;;;;;;25.66;64.21;97783.70;587307;241;64480;-66
2022/03/01 09:28:27;;;;;;;;;;;;;;;25.58;58.69;97778.93;586296;241;63228;-66
2022/03/01 09:30:55;;;;;;;;;;;;;;;25.61;63.59;97772.18;587673;240;64770;-67
2022/03/01 09:33:26;;;;;;;;;;;;;;;25.62;62.94;97771.91;583024;241;64742;-68
2022/03/01 09:35:53;;;;;;;;;;;;;;;25.60;63.85;97775.97;580034;244;65168;-68
2022/03/01 09:38:21;;;;;;;;;;;;;;;25.60;63.90;97771.38;580064;244;66543;-69
2022/03/01 09:40:49;;;;;;;;;;;;;;;25.60;63.08;97771.38;579917;244;66859;-67
2022/03/01 09:43:17;;;;;;;;;;;;;;;25.60;63.52;97773.28;579928;244;63294;-69
2022/03/01 09:45:44;;;;;;;;;;;;;;;25.59;63.10;97775.17;580006;244;65041;-69
2022/03/01 09:48:12;;;;;;;;;;;;;;;25.60;63.55;97773.28;579902;244;65504;-70
2022/03/01 09:50:40;;;;;;;;;;;;;;;25.60;63.37;97773.28;580023;244;65300;-69
2022/03/01 09:53:08;;;;;;;;;;;;;;;25.61;63.45;97769.48;579868;244;66783;-68
2022/03/01 09:55:35;;;;;;;;;;;;;;;25.61;63.50;97769.48;579939;244;66650;-69
2022/03/01 09:58:03;;;;;;;;;;;;;;;25.63;64.19;97767.32;579968;244;65479;-68
2022/03/01 10:00:31;;;;;;;;;;;;;;;25.62;64.06;97769.22;580000;244;64867;-67
2022/03/01 10:02:59;;;;;;;;;;;;;;;25.64;63.12;97763.53;579987;244;64316;-67
2022/03/01 10:05:34;;;;;;;;;;;;;;;25.65;62.96;97760.58;579960;244;65450;-71
2022/03/01 10:08:09;;;;;;;;;;;;;;;25.65;63.34;97755.19;579999;244;66937;-69
2022/03/01 10:10:41;;;;;;;;;;;;;;;25.69;62.87;97760.80;579891;244;67621;-72
2022/03/01 10:13:09;;;;;;;;;;;;;;;25.73;62.50;97753.77;579944;244;65243;-67
2022/03/01 10:15:36;;;;;;;;;;;;;;;25.75;62.84;97759.66;579676;244;66926;-68
2022/03/01 10:18:14;;;;;;;;;;;;;;;25.76;62.54;97755.10;578772;244;67814;-68
2022/03/01 10:20:45;;;;;;;;;;;;;;;25.78;62.42;97759.12;577591;244;63216;-68
2022/03/01 10:23:13;;;;;;;;;;;;;;;25.78;62.96;97759.12;574946;245;68789;-67
2022/03/01 10:25:42;;;;;;;;;;;;;;;25.79;62.13;97747.25;575330;245;63264;-69
2022/03/01 10:28:10;;;;;;;;;;;;;;;25.81;62.43;97750.47;578428;245;65613;-69
2022/03/01 10:30:39;;;;;;;;;;;;;;;25.81;62.97;97747.77;578290;245;64626;-70
2022/03/01 10:33:08;;;;;;;;;;;;;;;25.82;62.72;97748.57;581598;242;67121;-68
2022/03/01 10:35:37;;;;;;;;;;;;;;;25.82;62.26;97733.22;584162;243;65331;-70
2022/03/01 10:38:05;;;;;;;;;;;;;;;25.85;62.19;97735.36;584166;243;64809;-70
2022/03/01 10:40:33;;;;;;;;;;;;;;;25.87;61.84;97738.58;584184;243;64783;-72
2022/03/01 10:43:05;;;;;;;;;;;;;;;25.89;62.67;97736.41;584173;243;65388;-69
2022/03/01 10:45:37;;;;;;;;;;;;;;;25.90;62.36;97732.62;584173;243;66920;-69
2022/03/01 10:48:07;;;;;;;;;;;;;;;25.91;62.19;97736.11;584155;243;64741;-69
2022/03/01 10:50:35;;;;;;;;;;;;;;;25.91;62.16;97736.91;584221;243;65377;-72
2022/03/01 10:53:03;;;;;;;;;;;;;;;25.94;61.28;97726.66;583983;243;66612;-69
2022/03/01 10:55:32;;;;;;;;;;;;;;;25.96;62.37;97727.19;584055;243;66748;-70
2022/03/01 10:58:02;;;;;;;;;;;;;;;25.97;63.42;97726.08;584139;243;63446;-70
2022/03/01 11:00:31;;;;;;;;;;;;;;;25.99;62.66;97721.22;584046;243;65692;-71
2022/03/01 11:02:58;;;;;;;;;;;;;;;26.00;62.34;97720.13;584198;243;66698;-69
2022/03/01 11:05:27;;;;;;;;;;;;;;;26.01;63.28;97719.05;584158;243;65291;-69
2022/03/01 11:07:55;;;;;;;;;;;;;;;26.03;61.33;97716.88;584135;243;67110;-67
2022/03/01 11:10:23;;;;;;;;;;;;;;;26.04;61.16;97716.58;584165;243;66716;-72
2022/03/01 11:12:52;;;;;;;;;;;;;;;26.05;62.70;97709.29;584237;243;65319;-70
2022/03/01 11:15:21;;;;;;;;;;;;;;;26.06;61.00;97711.71;584203;243;66839;-69
2022/03/01 11:18:02;;;;;;;;;;;;;;;26.10;61.38;97711.93;584070;243;66738;-69
2022/03/01 11:20:32;;;;;;;;;;;;;;;26.12;60.83;97709.76;583987;242;63074;-69
2022/03/01 11:23:01;;;;;;;;;;;;;;;26.12;62.55;97713.25;584068;243;66843;-64
2022/03/01 11:25:28;;;;;;;;;;;;;;;26.14;60.88;97707.59;584164;243;64381;-62
2022/03/01 11:28:03;;;;;;;;;;;;;;;26.16;58.72;97700.00;584174;243;65962;-64
2022/03/01 11:30:35;;;;;;;;;;;;;;;26.12;56.38;97704.38;584184;243;66944;-67
2022/03/01 11:33:03;;;;;;;;;;;;;;;26.15;57.24;97692.22;584114;242;64845;-62
2022/03/01 11:35:31;;;;;;;;;;;;;;;26.11;58.50;97697.39;584044;243;63171;-70
2022/03/01 11:38:03;;;;;;;;;;;;;;;26.12;57.30;97690.91;584273;243;64641;-71
2022/03/01 11:40:32;;;;;;;;;;;;;;;26.19;55.94;97693.23;584269;243;66457;-68
2022/03/01 11:43:10;;;;;;;;;;;;;;;26.25;56.90;97698.28;584205;243;64648;-70
2022/03/01 11:45:39;;;;;;;;;;;;;;;26.28;57.36;97686.13;583907;243;66550;-67
2022/03/01 11:48:09;;;;;;;;;;;;;;;26.30;56.89;97690.14;584176;243;66905;-68
2022/03/01 11:50:36;;;;;;;;;;;;;;;26.32;56.55;97679.85;584094;242;63281;-68
2022/03/01 11:53:05;;;;;;;;;;;;;;;26.34;56.82;97680.38;584236;243;66786;-70
2022/03/01 11:55:35;;;;;;;;;;;;;;;26.36;57.95;97680.09;584223;243;64344;-70
2022/03/01 11:58:03;;;;;;;;;;;;;;;26.35;59.73;97681.99;581777;243;63234;-66
2022/03/01 12:00:33;;;;;;;;;;;;;;;26.36;59.66;97677.40;584253;243;64655;-66
2022/03/01 12:03:01;;;;;;;;;;;;;;;26.35;60.16;97673.91;584184;243;64816;-65
2022/03/01 12:05:29;;;;;;;;;;;;;;;26.36;59.80;97677.40;584189;243;65286;-65
2022/03/01 12:07:57;;;;;;;;;;;;;;;26.39;58.73;97671.42;584195;243;66773;-62
2022/03/01 12:10:26;;;;;;;;;;;;;;;26.39;59.88;97659.85;584164;243;66866;-67
2022/03/01 12:12:54;;;;;;;;;;;;;;;26.39;59.89;97657.95;584151;243;65587;-69
2022/03/01 12:15:28;;;;;;;;;;;;;;;26.40;58.94;97666.83;584146;243;68188;-68
2022/03/01 12:17:57;;;;;;;;;;;;;;;26.41;59.69;97663.03;584134;243;66870;-67
2022/03/01 12:20:25;;;;;;;;;;;;;;;26.41;58.88;97671.12;584183;243;63181;-66
2022/03/01 12:23:01;;;;;;;;;;;;;;;26.41;58.56;97660.34;584231;243;67036;-67
2022/03/01 12:25:30;;;;;;;;;;;;;;;26.42;57.59;97660.06;584170;243;66912;-68
2022/03/01 12:27:58;;;;;;;;;;;;;;;26.42;57.86;97654.67;584185;243;65489;-73
2022/03/01 12:30:26;;;;;;;;;;;;;;;26.44;57.49;97659.78;584228;243;66969;-71
2022/03/01 12:32:55;;;;;;;;;;;;;;;26.43;58.63;97650.08;584111;242;64502;-69
2022/03/01 12:35:23;;;;;;;;;;;;;;;26.39;56.80;97654.46;584123;243;65144;-69
2022/03/01 12:37:51;;;;;;;;;;;;;;;26.43;55.71;97650.08;584167;243;64775;-69
2022/03/01 12:40:28;;;;;;;;;;;;;;;26.45;56.81;97648.70;584167;243;64592;-68
2022/03/01 12:43:00;;;;;;;;;;;;;;;26.47;56.48;97646.52;583180;243;65377;-69
2022/03/01 12:45:35;;;;;;;;;;;;;;;26.49;56.73;97640.82;582480;243;67116;-69
2022/03/01 12:48:03;;;;;;;;;;;;;;;26.50;56.95;97639.75;582584;243;64675;-70
2022/03/01 12:50:31;;;;;;;;;;;;;;;26.49;57.72;97644.34;582590;243;65400;-69
2022/03/01 12:52:59;;;;;;;;;;;;;;;26.52;57.38;97645.69;582556;243;66934;-69